Terminal Aerodrome Forecast
Issued by NWS

Home | Current Version | Previous Version | Text Only | Print | Product List | Glossary On
Versions: 1 2 3 4 5 6 7 8 9 10 11 12 13 14 15 16 17 18 19 20 21 22 23 24 25 26 27 28 29 30 31 32
000
FTAK31 PAFA 040540
TAFAFA
TAF
PAFA 040540Z 0406/0512 03005KT P6SM SCT120 BKN200
     FM041300 04004KT 3SM FU FEW070 SCT120
     FM042000 09006KT 6SM FU SCT250
     FM050900 VRB03KT 4SM FU SCT150=

USA.gov is the U.S. government's official web portal to all federal, state and local government web resources and services.